Time;durP1;ratioP1;P1;durP2;ratioP2;P2;SDS_P1;SDS_P2;PMS_P1;PMS_P2;Temp;Humidity;BMP_temperature;BMP_pressure;BME280_temperature;BME280_humidity;BME280_pressure;Samples;Min_cycle;Max_cycle;Signal;HPM_P1;HPM_P2
2021/03/06 00:01:13;;;;;;;11.23;4.95;;;2.40;95.70;;;;;;5111422;28;20040;-78
2021/03/06 00:03:40;;;;;;;8.50;4.55;;;2.40;95.60;;;;;;5111714;28;20454;-79
2021/03/06 00:06:06;;;;;;;9.02;5.00;;;2.40;95.60;;;;;;5093405;28;20476;-79
2021/03/06 00:08:33;;;;;;;9.13;4.82;;;2.50;95.40;;;;;;5111206;28;20051;-80
2021/03/06 00:10:59;;;;;;;9.82;5.03;;;2.40;95.30;;;;;;5109652;28;20054;-79
2021/03/06 00:13:27;;;;;;;10.18;4.45;;;2.40;95.00;;;;;;5111147;28;20730;-80
2021/03/06 00:15:54;;;;;;;7.82;4.32;;;2.40;94.60;;;;;;5092846;28;20048;-79
2021/03/06 00:18:22;;;;;;;7.75;4.28;;;2.30;94.60;;;;;;5111077;28;20552;-79
2021/03/06 00:20:48;;;;;;;8.10;4.00;;;2.50;94.60;;;;;;5072337;28;20044;-80
2021/03/06 00:23:15;;;;;;;7.45;4.15;;;2.50;94.30;;;;;;5090769;28;20564;-80
2021/03/06 00:25:42;;;;;;;7.75;4.60;;;2.40;94.20;;;;;;5090605;28;20419;-80
2021/03/06 00:28:09;;;;;;;7.78;4.10;;;2.50;93.90;;;;;;5090359;28;20048;-80
2021/03/06 00:30:37;;;;;;;7.32;4.32;;;2.50;94.00;;;;;;5092309;28;20479;-80
2021/03/06 00:33:05;;;;;;;8.25;4.40;;;2.50;93.80;;;;;;5111473;28;20086;-80
2021/03/06 00:35:32;;;;;;;8.23;4.07;;;2.50;93.80;;;;;;5111181;28;20050;-80
2021/03/06 00:37:59;;;;;;;8.57;4.22;;;2.50;93.50;;;;;;5109633;28;20039;-80
2021/03/06 00:40:26;;;;;;;7.93;4.60;;;2.50;93.40;;;;;;5110531;28;20085;-80
2021/03/06 00:42:53;;;;;;;8.05;4.40;;;2.50;93.20;;;;;;5110408;28;20420;-81
2021/03/06 00:45:19;;;;;;;9.02;5.07;;;2.50;93.20;;;;;;5110416;28;20067;-80
2021/03/06 00:47:47;;;;;;;7.85;4.10;;;2.50;93.50;;;;;;5110333;28;20139;-80
2021/03/06 00:50:19;;;;;;;8.20;4.45;;;2.50;93.20;;;;;;5110766;28;20139;-81
2021/03/06 00:52:46;;;;;;;11.02;5.03;;;2.40;93.10;;;;;;5109806;28;20404;-80
2021/03/06 00:55:13;;;;;;;9.05;5.18;;;2.40;93.20;;;;;;5092410;28;20043;-79
2021/03/06 00:57:40;;;;;;;10.20;5.18;;;2.30;93.10;;;;;;5092750;28;20434;-79
2021/03/06 01:00:08;;;;;;;9.50;5.00;;;2.30;93.50;;;;;;5109959;28;20086;-80
2021/03/06 01:02:35;;;;;;;8.73;4.70;;;2.20;93.60;;;;;;5110112;28;20185;-81
2021/03/06 01:05:04;;;;;;;9.20;4.82;;;2.10;94.00;;;;;;5110650;28;20663;-82
2021/03/06 01:07:31;;;;;;;8.75;4.95;;;2.10;94.10;;;;;;5092386;28;20390;-80
2021/03/06 01:09:57;;;;;;;8.90;4.95;;;2.10;94.20;;;;;;5111415;28;20155;-82
2021/03/06 01:12:24;;;;;;;10.48;4.78;;;2.00;94.30;;;;;;5111635;28;20083;-82
2021/03/06 01:14:50;;;;;;;7.45;4.38;;;2.00;94.50;;;;;;5094265;28;20055;-80
2021/03/06 01:17:17;;;;;;;8.25;4.93;;;1.90;94.30;;;;;;5111149;28;20130;-81
2021/03/06 01:19:44;;;;;;;9.88;4.88;;;2.00;94.00;;;;;;5111598;28;20489;-82
2021/03/06 01:22:11;;;;;;;7.32;4.40;;;1.90;94.20;;;;;;5110815;28;20046;-82
2021/03/06 01:24:38;;;;;;;10.50;5.35;;;1.90;94.10;;;;;;5111577;28;20130;-81
2021/03/06 01:27:04;;;;;;;8.38;4.75;;;1.90;94.10;;;;;;5111336;28;20048;-82
2021/03/06 01:29:31;;;;;;;10.40;5.80;;;1.90;93.90;;;;;;5111024;28;20039;-82
2021/03/06 01:31:58;;;;;;;8.27;4.82;;;1.90;93.80;;;;;;5110541;28;20104;-81
2021/03/06 01:34:25;;;;;;;8.88;4.78;;;1.90;93.90;;;;;;5093296;28;20061;-81
2021/03/06 01:36:51;;;;;;;8.10;4.47;;;1.80;94.30;;;;;;5110794;28;20079;-81
2021/03/06 01:39:19;;;;;;;8.88;4.50;;;1.70;94.40;;;;;;5110902;28;20127;-81
2021/03/06 01:41:45;;;;;;;7.40;4.30;;;1.70;94.40;;;;;;5111161;28;20126;-81
2021/03/06 01:44:12;;;;;;;7.47;4.10;;;1.70;94.60;;;;;;5110870;28;20087;-81
2021/03/06 01:46:39;;;;;;;8.60;4.45;;;1.70;94.50;;;;;;5111003;28;20519;-81
2021/03/06 01:49:05;;;;;;;8.45;4.53;;;1.70;94.50;;;;;;5111271;28;20622;-80
2021/03/06 01:51:32;;;;;;;9.50;4.80;;;1.70;94.50;;;;;;5096706;28;20079;-80
2021/03/06 01:54:00;;;;;;;7.90;4.57;;;1.70;94.50;;;;;;5131138;27;20134;-80
2021/03/06 01:56:29;;;;;;;8.65;4.18;;;1.70;94.00;;;;;;5131239;28;20126;-80
2021/03/06 01:58:56;;;;;;;8.90;4.82;;;1.60;93.60;;;;;;5115402;28;20153;-81
2021/03/06 02:01:23;;;;;;;6.78;4.28;;;1.60;94.20;;;;;;5110645;28;20051;-82
2021/03/06 02:03:50;;;;;;;6.85;4.30;;;1.50;94.60;;;;;;5110673;28;20322;-81
2021/03/06 02:06:17;;;;;;;9.68;4.75;;;1.50;94.30;;;;;;5110607;28;20138;-81
2021/03/06 02:08:44;;;;;;;8.55;4.60;;;1.50;93.90;;;;;;5110971;28;20052;-81
2021/03/06 02:11:11;;;;;;;7.45;4.50;;;1.30;93.90;;;;;;5110291;28;20143;-81
2021/03/06 02:13:54;;;;;;;7.85;4.40;;;1.40;93.60;;;;;;5091480;28;20043;-81
2021/03/06 02:16:34;;;;;;;7.35;4.18;;;1.50;93.80;;;;;;5092823;28;20102;-82
2021/03/06 02:19:17;;;;;;;7.57;4.15;;;1.50;93.70;;;;;;5111144;28;20473;-82
2021/03/06 02:22:04;;;;;;;6.20;3.60;;;1.30;94.10;;;;;;5111214;28;20054;-82
2021/03/06 02:24:54;;;;;;;8.82;5.10;;;1.30;94.00;;;;;;5110877;28;20134;-82
2021/03/06 02:27:31;;;;;;;7.43;3.85;;;1.30;94.20;;;;;;5110390;28;20154;-81
2021/03/06 02:30:01;;;;;;;8.18;4.30;;;1.20;94.10;;;;;;5110833;28;20177;-80
2021/03/06 02:32:32;;;;;;;7.38;4.05;;;1.10;94.00;;;;;;5109226;28;20044;-77
2021/03/06 02:35:10;;;;;;;6.43;3.58;;;1.20;94.20;;;;;;5109823;28;20208;-79
2021/03/06 02:37:40;;;;;;;5.82;3.45;;;1.30;94.30;;;;;;5110141;28;20134;-81
2021/03/06 02:40:09;;;;;;;6.47;3.95;;;1.30;94.00;;;;;;5110261;28;20061;-80
2021/03/06 02:42:37;;;;;;;6.60;3.60;;;1.30;93.90;;;;;;5105299;28;20040;-80
2021/03/06 02:45:07;;;;;;;5.30;2.97;;;1.30;93.70;;;;;;5105925;28;20155;-80
2021/03/06 02:47:35;;;;;;;5.20;3.15;;;1.30;93.30;;;;;;5076038;28;20044;-80
2021/03/06 02:50:05;;;;;;;5.68;3.40;;;1.10;93.20;;;;;;5110558;28;20560;-80
2021/03/06 02:52:32;;;;;;;7.28;3.97;;;1.20;93.30;;;;;;5109868;28;20048;-80
2021/03/06 02:54:58;;;;;;;7.13;3.67;;;1.20;93.00;;;;;;5109793;28;20048;-80
2021/03/06 02:57:43;;;;;;;7.90;4.20;;;1.30;92.90;;;;;;5110216;28;20138;-80
2021/03/06 03:00:22;;;;;;;7.70;3.85;;;1.40;92.50;;;;;;5110258;28;20464;-80
2021/03/06 03:03:05;;;;;;;6.97;4.00;;;1.30;92.60;;;;;;5113853;28;20086;-81
2021/03/06 03:05:37;;;;;;;7.03;4.30;;;1.20;92.40;;;;;;5114195;28;20127;-81
2021/03/06 03:08:09;;;;;;;7.95;4.25;;;1.20;92.20;;;;;;5114539;28;20137;-83
2021/03/06 03:10:49;;;;;;;6.53;4.03;;;1.20;92.30;;;;;;5113853;28;20127;-83
2021/03/06 03:13:22;;;;;;;8.85;4.43;;;1.10;92.50;;;;;;5114219;28;20110;-82
2021/03/06 03:15:53;;;;;;;6.38;3.90;;;1.10;92.30;;;;;;5113825;28;20525;-80
2021/03/06 03:18:25;;;;;;;6.57;3.88;;;1.00;92.60;;;;;;5113520;28;20557;-80
2021/03/06 03:20:55;;;;;;;6.43;4.20;;;1.00;92.90;;;;;;5113618;28;20079;-80
2021/03/06 03:23:27;;;;;;;8.52;4.40;;;1.00;93.00;;;;;;5113040;28;20121;-81
2021/03/06 03:25:54;;;;;;;7.30;4.20;;;0.90;93.30;;;;;;5113907;28;20138;-80
2021/03/06 03:28:22;;;;;;;7.60;3.65;;;0.80;93.40;;;;;;5113342;28;20431;-79
2021/03/06 03:30:51;;;;;;;8.00;4.30;;;0.80;93.70;;;;;;5113320;28;20135;-81
2021/03/06 03:33:19;;;;;;;6.38;3.80;;;0.80;93.80;;;;;;5112724;28;20135;-81
2021/03/06 03:35:46;;;;;;;6.68;3.50;;;0.80;93.90;;;;;;5094820;28;20130;-81
2021/03/06 03:38:13;;;;;;;6.35;3.88;;;0.80;93.90;;;;;;5113000;28;20504;-80
2021/03/06 03:40:41;;;;;;;6.88;4.00;;;0.80;94.00;;;;;;5113575;28;20123;-80
2021/03/06 03:43:07;;;;;;;6.63;3.70;;;0.90;93.60;;;;;;5113063;28;20130;-80
2021/03/06 03:45:35;;;;;;;6.45;4.07;;;0.90;93.30;;;;;;5094931;28;20134;-80
2021/03/06 03:48:04;;;;;;;7.72;4.10;;;0.90;93.00;;;;;;5113289;28;20450;-81
2021/03/06 03:50:31;;;;;;;6.10;3.55;;;0.90;93.00;;;;;;5112512;28;20046;-80
2021/03/06 03:52:59;;;;;;;6.50;3.47;;;0.80;93.30;;;;;;5094596;28;20236;-80
2021/03/06 03:55:26;;;;;;;6.05;3.30;;;0.80;93.40;;;;;;5113262;28;20138;-80
2021/03/06 03:57:53;;;;;;;6.35;3.78;;;0.90;93.40;;;;;;5113233;28;20052;-80
2021/03/06 04:00:23;;;;;;;6.05;3.55;;;0.90;93.40;;;;;;5112661;28;20115;-80
2021/03/06 04:02:50;;;;;;;5.78;3.45;;;1.00;93.60;;;;;;5112543;28;20098;-79
2021/03/06 04:05:18;;;;;;;4.93;3.20;;;1.00;93.30;;;;;;5128583;27;20051;-80
2021/03/06 04:07:46;;;;;;;6.07;3.40;;;1.00;93.10;;;;;;5112498;28;20523;-80
2021/03/06 04:10:15;;;;;;;5.65;3.28;;;1.10;93.00;;;;;;5112499;28;20489;-80
2021/03/06 04:12:43;;;;;;;5.38;3.10;;;1.10;92.80;;;;;;5093242;28;20181;-80
2021/03/06 04:15:12;;;;;;;6.57;3.33;;;1.10;92.50;;;;;;5094387;28;20050;-80
2021/03/06 04:17:39;;;;;;;5.20;3.03;;;1.10;92.30;;;;;;5112345;28;20043;-80
2021/03/06 04:20:09;;;;;;;5.18;3.00;;;1.10;92.30;;;;;;5112806;28;20112;-81
2021/03/06 04:22:37;;;;;;;5.32;3.53;;;1.10;92.40;;;;;;5112488;28;20580;-81
2021/03/06 04:25:04;;;;;;;6.38;3.22;;;1.20;92.40;;;;;;5095293;28;20568;-81
2021/03/06 04:27:31;;;;;;;5.88;3.65;;;1.20;91.90;;;;;;5094258;28;20046;-81
2021/03/06 04:29:57;;;;;;;5.18;3.10;;;1.10;91.50;;;;;;5112541;28;20138;-81
2021/03/06 04:32:24;;;;;;;6.32;3.28;;;1.20;91.80;;;;;;5094495;28;20404;-81
2021/03/06 04:34:51;;;;;;;6.05;3.25;;;1.20;91.40;;;;;;5112297;28;20130;-81
2021/03/06 04:37:18;;;;;;;5.45;3.20;;;1.20;91.50;;;;;;5094248;28;20138;-81
2021/03/06 04:39:45;;;;;;;6.30;3.17;;;1.10;91.30;;;;;;5077932;28;20135;-81
2021/03/06 04:42:12;;;;;;;5.55;3.33;;;1.20;91.30;;;;;;5112049;28;20103;-81
2021/03/06 04:44:39;;;;;;;5.13;3.33;;;1.10;91.20;;;;;;5112303;28;20099;-81
2021/03/06 04:47:06;;;;;;;5.78;3.25;;;1.10;91.00;;;;;;5094557;28;20409;-80
2021/03/06 04:49:33;;;;;;;5.55;3.17;;;1.00;91.00;;;;;;5111847;28;20142;-79
2021/03/06 04:52:00;;;;;;;6.70;3.10;;;1.00;90.90;;;;;;5111438;28;20497;-80
2021/03/06 04:54:27;;;;;;;6.35;3.25;;;1.00;90.70;;;;;;5111875;28;20044;-80
2021/03/06 04:56:55;;;;;;;12.80;6.07;;;1.00;90.50;;;;;;5111708;28;20048;-80
2021/03/06 04:59:21;;;;;;;25.80;11.25;;;1.00;90.60;;;;;;5093636;28;20142;-81
2021/03/06 05:01:48;;;;;;;11.93;5.40;;;1.10;90.90;;;;;;5111145;28;20086;-82
2021/03/06 05:04:15;;;;;;;9.52;4.57;;;1.00;90.70;;;;;;5112007;28;20165;-80
2021/03/06 05:06:44;;;;;;;7.57;3.58;;;1.00;90.70;;;;;;5093566;28;20061;-80
2021/03/06 05:09:11;;;;;;;7.93;4.03;;;1.00;90.50;;;;;;5094128;28;20047;-81
2021/03/06 05:11:38;;;;;;;7.07;3.60;;;0.90;90.40;;;;;;5112298;27;20321;-80
2021/03/06 05:14:06;;;;;;;5.28;3.30;;;0.90;90.60;;;;;;5108015;27;20135;-80
2021/03/06 05:16:32;;;;;;;5.72;3.38;;;0.90;90.70;;;;;;5090558;28;20048;-81
2021/03/06 05:18:59;;;;;;;6.35;3.58;;;0.90;90.60;;;;;;5108439;28;20131;-81
2021/03/06 05:21:26;;;;;;;6.80;3.33;;;0.90;90.40;;;;;;5111798;28;20109;-80
2021/03/06 05:23:56;;;;;;;5.78;3.42;;;0.90;90.10;;;;;;5093507;28;20063;-80
2021/03/06 05:26:22;;;;;;;6.45;3.20;;;0.90;90.00;;;;;;5093716;28;20142;-81
2021/03/06 05:28:49;;;;;;;6.72;3.38;;;0.80;89.80;;;;;;5111550;28;20130;-81
2021/03/06 05:31:16;;;;;;;6.05;3.60;;;0.90;89.30;;;;;;5111418;28;20516;-81
2021/03/06 05:33:43;;;;;;;5.65;3.35;;;0.80;89.20;;;;;;5093069;28;20130;-82
2021/03/06 05:36:10;;;;;;;5.35;3.08;;;0.80;89.70;;;;;;5111546;28;20138;-83
2021/03/06 05:38:36;;;;;;;6.03;3.53;;;0.70;89.90;;;;;;5110898;28;20308;-82
2021/03/06 05:41:03;;;;;;;7.10;3.63;;;0.70;89.60;;;;;;5111543;28;20474;-81
2021/03/06 05:43:31;;;;;;;6.25;3.90;;;0.70;89.90;;;;;;5111255;28;20090;-82
2021/03/06 05:45:57;;;;;;;6.10;3.25;;;0.70;89.50;;;;;;5093328;28;20104;-81
2021/03/06 05:48:25;;;;;;;6.63;3.38;;;0.80;89.30;;;;;;5111161;28;20126;-80
2021/03/06 05:50:52;;;;;;;5.97;3.67;;;0.80;89.40;;;;;;5110612;28;20581;-81
2021/03/06 05:53:21;;;;;;;5.25;3.05;;;0.80;88.40;;;;;;5110690;28;20120;-80
2021/03/06 05:55:53;;;;;;;5.65;3.65;;;0.80;88.70;;;;;;5111167;28;20128;-81
2021/03/06 05:58:22;;;;;;;6.03;3.40;;;0.70;89.00;;;;;;5093018;28;20044;-81
2021/03/06 06:00:49;;;;;;;6.32;3.80;;;0.80;88.80;;;;;;5111316;28;20127;-81
2021/03/06 06:03:17;;;;;;;5.93;3.33;;;0.80;88.50;;;;;;5109865;28;20162;-80
2021/03/06 06:05:45;;;;;;;6.90;3.40;;;0.80;88.40;;;;;;5110347;28;20127;-79
2021/03/06 06:08:14;;;;;;;5.90;3.42;;;0.80;88.20;;;;;;5110102;28;20083;-79
2021/03/06 06:10:40;;;;;;;5.35;3.15;;;0.80;88.30;;;;;;5103539;28;20123;-83
2021/03/06 06:13:07;;;;;;;6.45;3.15;;;0.80;88.10;;;;;;5107176;28;20135;-83
2021/03/06 06:15:34;;;;;;;6.07;3.60;;;0.90;87.90;;;;;;5090708;28;20470;-83
2021/03/06 06:18:00;;;;;;;6.18;3.60;;;0.90;87.80;;;;;;5072720;28;20137;-83
2021/03/06 06:20:27;;;;;;;5.47;3.20;;;0.90;87.40;;;;;;5091255;28;20570;-84
2021/03/06 06:23:12;;;;;;;6.22;3.40;;;1.00;87.00;;;;;;5105017;28;20086;-80
2021/03/06 06:25:38;;;;;;;;;;;0.80;87.40;;;;;;5105782;28;20049;-80
2021/03/06 06:28:07;;;;;;;7.57;3.63;;;0.80;86.80;;;;;;5089415;28;20019;-80
2021/03/06 06:30:34;;;;;;;6.28;3.47;;;0.90;86.60;;;;;;5091659;28;20131;-82
2021/03/06 06:33:02;;;;;;;7.05;4.00;;;0.90;86.50;;;;;;5057382;28;20162;-82
2021/03/06 06:35:28;;;;;;;7.13;3.50;;;0.90;86.30;;;;;;5108829;28;20071;-80
2021/03/06 06:38:00;;;;;;;7.10;3.70;;;0.90;86.80;;;;;;5113254;28;20047;-79
2021/03/06 06:40:30;;;;;;;6.57;3.42;;;0.90;86.20;;;;;;5084907;28;20079;-79
2021/03/06 06:42:58;;;;;;;5.93;3.50;;;0.90;86.70;;;;;;5093348;28;20664;-80
2021/03/06 06:45:26;;;;;;;6.55;3.45;;;0.90;87.20;;;;;;5076480;28;20044;-80
2021/03/06 06:47:54;;;;;;;6.28;3.88;;;1.00;87.70;;;;;;5093034;28;20143;-82
2021/03/06 06:50:32;;;;;;;6.22;3.50;;;1.00;87.80;;;;;;5093446;28;20051;-81
2021/03/06 06:53:00;;;;;;;7.60;3.97;;;1.00;87.60;;;;;;5105786;28;20094;-79
2021/03/06 06:55:37;;;;;;;6.90;3.90;;;1.00;87.90;;;;;;5111873;28;20138;-78
2021/03/06 06:58:05;;;;;;;6.70;3.58;;;1.10;87.50;;;;;;5104508;28;20556;-81
2021/03/06 07:00:34;;;;;;;7.00;4.00;;;1.10;87.30;;;;;;5099354;28;20052;-81
2021/03/06 07:03:04;;;;;;;5.82;3.65;;;1.20;87.30;;;;;;5096852;28;20479;-78
2021/03/06 07:05:33;;;;;;;7.18;3.90;;;1.20;87.40;;;;;;5092073;28;20213;-78
2021/03/06 07:08:02;;;;;;;6.43;3.75;;;1.20;87.80;;;;;;5112792;28;20156;-78
2021/03/06 07:10:38;;;;;;;7.82;4.00;;;1.20;87.60;;;;;;5107453;28;20127;-77
2021/03/06 07:13:05;;;;;;;;;;;1.20;87.30;;;;;;5111373;28;20132;-78
2021/03/06 07:15:33;;;;;;;6.63;3.58;;;1.10;87.20;;;;;;5103763;28;19953;-78
2021/03/06 07:18:02;;;;;;;6.53;3.80;;;1.30;87.60;;;;;;5093681;28;20062;-78
2021/03/06 07:20:36;;;;;;;7.10;4.00;;;1.30;87.40;;;;;;5093258;28;20039;-77
2021/03/06 07:23:23;;;;;;;7.55;4.53;;;1.30;87.40;;;;;;5092904;28;20142;-78
2021/03/06 07:25:52;;;;;;;7.68;4.47;;;1.30;87.70;;;;;;5074656;28;20048;-78
2021/03/06 07:28:19;;;;;;;7.45;4.20;;;1.40;88.20;;;;;;5107447;27;20040;-78
2021/03/06 07:30:47;;;;;;;7.72;4.32;;;1.40;88.40;;;;;;5100898;28;20046;-78
2021/03/06 07:33:16;;;;;;;8.73;5.13;;;1.50;88.60;;;;;;5108870;27;20480;-77
2021/03/06 07:35:45;;;;;;;7.72;4.82;;;1.50;88.70;;;;;;5092298;28;20516;-78
2021/03/06 07:38:16;;;;;;;9.50;4.97;;;1.60;88.90;;;;;;5074914;28;20556;-78
2021/03/06 07:40:47;;;;;;;7.60;4.68;;;1.60;88.80;;;;;;5097408;28;20055;-77
2021/03/06 07:43:18;;;;;;;7.93;4.72;;;1.70;88.40;;;;;;5095454;28;20083;-78
2021/03/06 07:45:49;;;;;;;7.57;4.63;;;1.70;88.40;;;;;;5112895;28;20552;-79
2021/03/06 07:48:19;;;;;;;6.90;4.10;;;1.80;88.30;;;;;;5084207;28;20383;-78
2021/03/06 07:50:48;;;;;;;8.43;4.63;;;1.90;88.50;;;;;;5102876;28;20075;-77
2021/03/06 07:53:16;;;;;;;7.45;4.40;;;2.00;88.40;;;;;;5105960;28;20378;-77
2021/03/06 07:55:43;;;;;;;7.57;4.55;;;2.00;87.90;;;;;;5111014;28;20098;-77
2021/03/06 07:58:12;;;;;;;7.28;4.40;;;2.00;87.40;;;;;;5094362;28;20039;-77
2021/03/06 08:00:53;;;;;;;7.70;4.78;;;2.00;88.10;;;;;;5109871;28;20524;-77
2021/03/06 08:03:37;;;;;;;8.30;4.75;;;2.00;87.90;;;;;;5074500;28;20493;-77
2021/03/06 08:06:19;;;;;;;7.93;4.28;;;2.10;88.00;;;;;;5090445;28;20405;-77
2021/03/06 08:09:04;;;;;;;7.90;4.60;;;2.20;87.80;;;;;;5109971;28;20815;-77
2021/03/06 08:11:43;;;;;;;8.20;4.90;;;2.30;87.90;;;;;;5100171;28;20181;-77
2021/03/06 08:14:39;;;;;;;7.63;4.85;;;2.50;87.60;;;;;;5107645;28;20051;-78
2021/03/06 08:17:36;;;;;;;8.68;5.10;;;2.50;87.40;;;;;;5110625;28;20112;-79
2021/03/06 08:20:07;;;;;;;7.47;4.65;;;2.60;86.90;;;;;;5074339;28;20046;-77
2021/03/06 08:22:33;;;;;;;7.72;4.70;;;2.60;86.90;;;;;;5091685;28;20070;-79
2021/03/06 08:25:18;;;;;;;8.93;5.18;;;2.70;86.60;;;;;;5095615;28;20413;-78
2021/03/06 08:27:44;;;;;;;8.55;4.85;;;2.70;86.40;;;;;;5112062;28;20044;-77
2021/03/06 08:30:27;;;;;;;8.43;5.07;;;2.80;86.40;;;;;;5111989;28;20050;-78
2021/03/06 08:33:17;;;;;;;8.25;4.88;;;2.80;87.20;;;;;;5116473;27;20488;-78
2021/03/06 08:35:44;;;;;;;7.78;5.03;;;3.00;86.10;;;;;;5114322;27;20134;-79
2021/03/06 08:38:28;;;;;;;7.60;4.80;;;3.00;85.50;;;;;;5091665;28;20134;-79
2021/03/06 08:40:55;;;;;;;;;;;3.10;85.80;;;;;;5093592;28;20076;-79
2021/03/06 08:43:22;;;;;;;7.70;4.93;;;3.00;85.70;;;;;;5102817;28;19924;-79
2021/03/06 08:45:49;;;;;;;9.23;4.90;;;3.20;85.30;;;;;;5106663;28;20090;-79
2021/03/06 08:48:23;;;;;;;7.45;4.80;;;3.20;85.20;;;;;;5106623;28;20400;-79
2021/03/06 08:50:50;;;;;;;9.90;5.00;;;3.30;84.90;;;;;;5109068;28;20039;-79
2021/03/06 08:53:17;;;;;;;7.72;4.95;;;3.40;84.40;;;;;;5108874;28;20546;-78
2021/03/06 08:55:46;;;;;;;7.18;4.10;;;3.30;83.90;;;;;;5109135;28;20071;-79
2021/03/06 08:58:17;;;;;;;7.45;4.22;;;3.40;83.20;;;;;;5088766;28;20556;-79
2021/03/06 09:00:47;;;;;;;6.75;3.90;;;3.50;82.30;;;;;;5097464;28;20047;-79
2021/03/06 09:03:20;;;;;;;7.93;4.13;;;3.50;82.60;;;;;;5104351;28;20575;-78
2021/03/06 09:05:52;;;;;;;7.50;4.45;;;3.60;81.70;;;;;;5097372;28;20134;-78
2021/03/06 09:08:21;;;;;;;7.43;4.53;;;3.70;81.20;;;;;;5106194;28;20522;-79
2021/03/06 09:10:49;;;;;;;7.10;4.35;;;3.70;81.10;;;;;;5090856;28;20051;-78
2021/03/06 09:13:18;;;;;;;7.03;4.28;;;3.80;80.00;;;;;;5109334;28;20138;-79
2021/03/06 09:15:52;;;;;;;7.47;3.95;;;3.90;79.80;;;;;;5092996;28;20116;-79
2021/03/06 09:18:23;;;;;;;6.38;3.60;;;3.90;79.20;;;;;;5111052;28;20047;-79
2021/03/06 09:20:55;;;;;;;6.93;3.70;;;4.00;78.20;;;;;;5090754;28;20131;-79
2021/03/06 09:23:31;;;;;;;6.75;3.70;;;4.00;77.90;;;;;;5102100;28;20067;-79
2021/03/06 09:26:02;;;;;;;5.45;3.40;;;4.00;76.90;;;;;;5092914;28;20469;-78
2021/03/06 09:28:30;;;;;;;4.97;3.10;;;4.10;76.40;;;;;;5093644;28;20058;-78
2021/03/06 09:31:00;;;;;;;6.57;3.40;;;4.30;76.30;;;;;;5110787;28;20088;-77
2021/03/06 09:33:31;;;;;;;5.82;3.38;;;4.20;76.20;;;;;;5110981;28;20150;-80
2021/03/06 09:36:02;;;;;;;5.28;3.20;;;4.40;74.50;;;;;;5093235;28;20055;-77
2021/03/06 09:38:28;;;;;;;6.80;3.53;;;4.40;74.30;;;;;;5111062;28;20166;-75
2021/03/06 09:40:56;;;;;;;6.78;3.78;;;4.40;73.90;;;;;;5110371;28;20191;-74
2021/03/06 09:43:36;;;;;;;5.95;3.60;;;4.50;74.30;;;;;;5110534;28;20248;-78
2021/03/06 09:46:12;;;;;;;6.15;3.60;;;4.50;73.60;;;;;;5108776;28;20055;-78
2021/03/06 09:48:48;;;;;;;5.68;3.10;;;4.60;71.70;;;;;;5094378;28;20131;-77
2021/03/06 09:51:15;;;;;;;5.10;3.10;;;4.70;70.80;;;;;;5098484;27;20071;-79
2021/03/06 09:53:43;;;;;;;5.35;3.10;;;4.60;68.80;;;;;;5086030;28;20143;-79
2021/03/06 09:56:13;;;;;;;5.18;2.88;;;4.60;68.80;;;;;;5079547;28;20135;-78
2021/03/06 09:58:41;;;;;;;7.82;3.30;;;4.70;68.50;;;;;;5109751;28;20051;-78
2021/03/06 10:01:17;;;;;;;5.13;2.95;;;4.70;68.60;;;;;;5100082;28;20044;-78
2021/03/06 10:03:47;;;;;;;5.22;3.05;;;4.80;68.30;;;;;;5107049;28;20047;-83
2021/03/06 10:06:16;;;;;;;5.43;3.00;;;4.90;66.40;;;;;;5110613;28;20043;-78
2021/03/06 10:08:55;;;;;;;5.88;3.40;;;4.90;66.50;;;;;;5092365;28;20130;-79
2021/03/06 10:11:29;;;;;;;6.93;3.75;;;5.00;64.40;;;;;;5090836;28;20074;-79
2021/03/06 10:13:59;;;;;;;6.70;2.92;;;5.10;62.70;;;;;;5096606;28;20055;-77
2021/03/06 10:16:26;;;;;;;6.25;3.67;;;4.90;62.60;;;;;;5097209;28;20079;-78
2021/03/06 10:19:01;;;;;;;5.65;3.17;;;5.00;61.00;;;;;;5084195;28;20090;-78
2021/03/06 10:21:27;;;;;;;6.13;3.15;;;5.00;59.10;;;;;;5097620;28;20170;-80
2021/03/06 10:24:02;;;;;;;5.72;3.42;;;5.10;59.30;;;;;;5114343;28;20048;-82
2021/03/06 10:26:30;;;;;;;7.40;3.45;;;5.00;60.30;;;;;;5114559;28;20064;-82
2021/03/06 10:28:59;;;;;;;5.95;3.30;;;5.10;62.60;;;;;;5114823;28;20390;-78
2021/03/06 10:31:39;;;;;;;6.35;3.50;;;5.10;62.20;;;;;;5114722;28;20046;-81
2021/03/06 10:34:25;;;;;;;4.85;2.75;;;5.20;61.80;;;;;;5112910;28;20047;-78
2021/03/06 10:37:11;;;;;;;6.03;3.05;;;5.30;62.00;;;;;;5114701;28;20048;-83
2021/03/06 10:39:55;;;;;;;5.88;3.22;;;5.40;61.10;;;;;;5114930;28;20051;-84
2021/03/06 10:42:23;;;;;;;5.20;2.53;;;5.40;60.70;;;;;;5104899;28;20198;-84
2021/03/06 10:44:50;;;;;;;7.00;3.50;;;5.50;59.80;;;;;;5113858;28;20094;-79
2021/03/06 10:47:17;;;;;;;5.38;2.85;;;5.50;59.90;;;;;;5113904;28;20138;-78
2021/03/06 10:49:47;;;;;;;4.97;2.70;;;5.50;59.10;;;;;;5113852;28;20130;-78
2021/03/06 10:52:28;;;;;;;6.72;3.17;;;5.50;59.30;;;;;;5113563;28;20123;-81
2021/03/06 10:54:57;;;;;;;4.32;2.65;;;5.50;58.90;;;;;;5113416;28;20126;-78
2021/03/06 10:57:25;;;;;;;4.50;2.90;;;5.50;58.80;;;;;;5114005;28;20122;-80
2021/03/06 10:59:52;;;;;;;5.45;3.38;;;5.50;58.70;;;;;;5114044;28;20050;-78
2021/03/06 11:02:28;;;;;;;5.63;3.05;;;5.60;57.50;;;;;;5114030;28;20039;-81
2021/03/06 11:05:15;;;;;;;5.07;3.13;;;5.60;57.80;;;;;;5113768;28;20086;-79
2021/03/06 11:07:42;;;;;;;6.78;3.60;;;5.60;58.10;;;;;;5113293;28;20123;-79
2021/03/06 11:10:10;;;;;;;6.38;3.38;;;5.70;58.60;;;;;;5113591;28;20568;-79
2021/03/06 11:12:39;;;;;;;4.75;2.80;;;5.70;58.00;;;;;;5095582;28;20139;-79
2021/03/06 11:15:13;;;;;;;4.70;2.80;;;5.80;57.30;;;;;;5113311;28;20126;-77
2021/03/06 11:17:44;;;;;;;5.95;3.20;;;5.90;57.80;;;;;;5096042;28;20047;-79
2021/03/06 11:20:14;;;;;;;5.38;3.13;;;5.90;57.60;;;;;;5094674;28;20048;-79
2021/03/06 11:22:42;;;;;;;5.10;2.75;;;6.00;57.00;;;;;;5095066;28;20126;-80
2021/03/06 11:25:11;;;;;;;6.13;3.33;;;6.10;58.60;;;;;;5112954;28;20160;-78
2021/03/06 11:27:47;;;;;;;6.25;3.53;;;6.20;56.80;;;;;;5112623;28;20501;-77
2021/03/06 11:30:17;;;;;;;5.30;3.10;;;6.20;56.70;;;;;;5079124;28;20126;-79
2021/03/06 11:32:45;;;;;;;5.70;2.85;;;6.10;57.10;;;;;;5112741;28;20139;-82
2021/03/06 11:35:14;;;;;;;5.00;2.97;;;6.20;57.10;;;;;;5110681;28;20050;-76
2021/03/06 11:37:40;;;;;;;4.43;2.58;;;6.30;56.90;;;;;;5112209;27;20545;-79
2021/03/06 11:40:10;;;;;;;5.93;3.10;;;6.40;57.30;;;;;;5113220;27;20127;-76
2021/03/06 11:42:37;;;;;;;5.13;3.25;;;6.40;56.00;;;;;;5076506;28;20124;-78
2021/03/06 11:45:06;;;;;;;4.82;2.90;;;6.50;52.30;;;;;;5094803;28;20417;-77
2021/03/06 11:47:33;;;;;;;4.57;2.60;;;6.50;53.70;;;;;;5110883;28;20105;-78
2021/03/06 11:50:00;;;;;;;5.28;3.10;;;6.60;54.60;;;;;;5112136;28;20134;-78
2021/03/06 11:52:28;;;;;;;4.38;2.50;;;6.60;53.80;;;;;;5093741;28;20096;-77
2021/03/06 11:54:54;;;;;;;7.65;4.07;;;6.70;53.00;;;;;;5112898;28;20079;-77
2021/03/06 11:57:21;;;;;;;6.10;3.22;;;6.80;51.70;;;;;;5112790;28;20556;-78
2021/03/06 11:59:48;;;;;;;5.45;2.50;;;6.70;51.30;;;;;;5110913;28;20047;-77
2021/03/06 12:02:14;;;;;;;4.30;2.13;;;6.70;51.10;;;;;;5110811;28;20680;-77
2021/03/06 12:04:41;;;;;;;5.05;2.88;;;6.70;51.30;;;;;;5112829;28;20086;-77
2021/03/06 12:07:08;;;;;;;4.75;2.40;;;6.80;50.90;;;;;;5112559;28;20139;-78
2021/03/06 12:09:35;;;;;;;3.97;2.47;;;6.80;51.00;;;;;;5111376;28;20043;-78
2021/03/06 12:12:02;;;;;;;4.90;2.10;;;6.90;50.50;;;;;;5111728;28;20048;-78
2021/03/06 12:14:29;;;;;;;4.72;2.42;;;7.00;50.80;;;;;;5112513;28;20147;-82
2021/03/06 12:16:56;;;;;;;4.97;2.53;;;7.10;50.50;;;;;;5112599;28;20075;-81
2021/03/06 12:19:22;;;;;;;5.45;2.85;;;7.20;50.20;;;;;;5112169;28;20047;-81
2021/03/06 12:21:49;;;;;;;5.43;3.05;;;7.30;49.80;;;;;;5112195;28;20055;-81
2021/03/06 12:24:15;;;;;;;4.35;2.33;;;7.40;49.00;;;;;;5112121;28;20555;-81
2021/03/06 12:26:43;;;;;;;4.45;2.60;;;7.40;49.10;;;;;;5112170;28;20075;-81
2021/03/06 12:29:10;;;;;;;3.90;2.40;;;7.50;48.90;;;;;;5112096;28;20135;-78
2021/03/06 12:31:36;;;;;;;4.55;2.40;;;7.60;49.00;;;;;;5112635;28;20135;-77
2021/03/06 12:34:05;;;;;;;4.25;2.45;;;7.70;49.20;;;;;;5110990;28;20051;-75
2021/03/06 12:36:31;;;;;;;4.85;2.63;;;7.90;48.70;;;;;;5116674;28;20065;-75
2021/03/06 12:38:58;;;;;;;5.60;3.00;;;8.00;47.70;;;;;;5120667;28;20077;-76
2021/03/06 12:41:24;;;;;;;5.05;2.85;;;8.10;46.80;;;;;;5113815;28;20065;-74
2021/03/06 12:43:52;;;;;;;4.55;2.60;;;8.20;46.80;;;;;;5112008;28;20153;-77
2021/03/06 12:46:18;;;;;;;5.15;2.40;;;8.30;46.10;;;;;;5112019;28;20178;-77
2021/03/06 12:48:45;;;;;;;4.32;2.42;;;8.30;46.20;;;;;;5111423;28;20036;-76
2021/03/06 12:51:12;;;;;;;4.38;2.17;;;8.40;46.10;;;;;;5111319;28;20188;-76
2021/03/06 12:53:38;;;;;;;4.57;2.60;;;8.60;46.10;;;;;;5111464;28;20055;-76
2021/03/06 12:56:06;;;;;;;4.40;2.42;;;8.80;46.30;;;;;;5111748;28;20336;-77
2021/03/06 12:58:33;;;;;;;4.75;2.45;;;8.90;45.20;;;;;;5111625;28;20522;-77
2021/03/06 13:01:00;;;;;;;3.72;2.50;;;9.10;44.60;;;;;;5113555;28;20131;-77
2021/03/06 13:03:27;;;;;;;6.75;2.75;;;9.10;44.20;;;;;;5119824;28;20080;-77
2021/03/06 13:05:54;;;;;;;4.65;2.35;;;9.10;43.80;;;;;;5119500;28;20099;-77
2021/03/06 13:08:21;;;;;;;4.40;2.20;;;9.20;43.60;;;;;;5120504;28;20075;-78
2021/03/06 13:10:47;;;;;;;4.47;2.17;;;9.30;42.90;;;;;;5113187;28;20046;-77